CheckWX is a tool to help pilots better visualize weather data.  It is not intended as a substitute for an official pre-flight weather briefing.

08:14:23 UTC

KMEV METAR
Minden-Tahoe Airport
Minden, Nevada, USA
Current

19 mins ago

KMEV 220755Z AUTO 36005KT 10SM -SN BKN028 OVC055 M06/M08 A2991 RMK AO2
Observed
Feb-22 @ 07:55 UTC
Wind
  • 360° at 5 KTS
Visibility
10 SM
Flight Rules
MVFR
Conditions
Light Snow
Cloud Levels
  • Broken at 2,800' AGL
  • Overcast at 5,500' AGL
Temperature
-6°C / 21°F
Dewpoint
-8°C / 18°F
Humidity
86%
Altimeter
29.91" Hg
Pressure
1012.92 hPa
Previous

39 mins ago

KMEV 220735Z AUTO 35008KT 10SM -SN BKN028 OVC034 M06/M08 A2990 RMK AO2
Observed
Feb-22 @ 07:35 UTC
Wind
  • 350° at 8 KTS
Visibility
10 SM
Flight Rules
MVFR
Conditions
Light Snow
Cloud Levels
  • Broken at 2,800' AGL
  • Overcast at 3,400' AGL
Temperature
-6°C / 21°F
Dewpoint
-8°C / 18°F
Humidity
86%
Altimeter
29.9" Hg
Pressure
1012.52 hPa
Previous

59 mins ago

KMEV 220715Z AUTO 34009KT 8SM -SN FEW021 BKN026 OVC060 M05/M08 A2989 RMK AO2
Observed
Feb-22 @ 07:15 UTC
Wind
  • 340° at 9 KTS
Visibility
8 SM
Flight Rules
MVFR
Conditions
Light Snow
Cloud Levels
  • Few at 2,100' AGL
  • Broken at 2,600' AGL
  • Overcast at 6,000' AGL
Temperature
-5°C / 23°F
Dewpoint
-8°C / 18°F
Humidity
80%
Altimeter
29.89" Hg
Pressure
1012.22 hPa